Moose Lake, Minnesota
Current Conditions -  °F | °C
As of 3:32 AM on Friday 31 Oct 2014 (Local Time) from KMZH Reporting Station
Broken Clouds Broken Clouds  
Wind Chill: 18°   Ceiling: 3500
Heat Index: 28°   Visibility: 10mi
Dew Point: 18°   Wind: 13mph
Humidity: 64%   Direction: 10°N
Pressure: 30.45"   Gusts: 21mph
Location:  46.45°N, 92.76°W
Report Text: KMZH 310832Z AUTO 01011G18KT 10SM BKN035 M02/M08 A3045 RMK AO2
Loading
Personal Weather Stations






























Interactive Weather Map
Tropical Storm Tracking
New forecast layout! Learn more

10-Day Weather Forecast

Advertisements
Track Severe Weather on mobile